Time;durP1;ratioP1;P1;durP2;ratioP2;P2;SDS_P1;SDS_P2;PMS_P1;PMS_P2;Temp;Humidity;BMP_temperature;BMP_pressure;BME280_temperature;BME280_humidity;BME280_pressure;Samples;Min_cycle;Max_cycle;Signal;HPM_P1;HPM_P2
2024/04/03 05:15:08;;;;;;;;;;;;;;;5.05;100.00;98771.78;4903502;29;19938;-81
2024/04/03 05:17:34;;;;;;;;;;;;;;;4.97;100.00;98770.34;4909251;29;19923;-78
2024/04/03 05:19:59;;;;;;;;;;;;;;;4.87;100.00;98778.56;4909328;29;19919;-78
2024/04/03 05:22:24;;;;;;;;;;;;;;;4.83;100.00;98774.31;4908735;29;20010;-79
2024/04/03 05:24:50;;;;;;;;;;;;;;;4.82;100.00;98777.88;4907433;29;19950;-78
2024/04/03 05:27:16;;;;;;;;;;;;;;;4.75;100.00;98773.72;4907648;29;19959;-83
2024/04/03 05:29:41;;;;;;;;;;;;;;;4.75;100.00;98773.72;4907334;29;19923;-78
2024/04/03 05:32:06;;;;;;;;;;;;;;;4.68;100.00;98769.63;4909383;29;20359;-79
2024/04/03 05:34:31;;;;;;;;;;;;;;;4.62;100.00;98782.94;4908533;29;20442;-79
2024/04/03 05:36:57;;;;;;;;;;;;;;;4.59;100.00;98777.81;4909216;29;19927;-79
2024/04/03 05:39:22;;;;;;;;;;;;;;;4.59;100.00;98775.19;4908914;29;19971;-79
2024/04/03 05:41:47;;;;;;;;;;;;;;;4.58;100.00;98776.06;4907129;29;19923;-78
2024/04/03 05:44:12;;;;;;;;;;;;;;;4.57;100.00;98779.63;4908672;29;19968;-80
2024/04/03 05:46:38;;;;;;;;;;;;;;;4.51;100.00;98775.44;4908837;29;19923;-78
2024/04/03 05:49:03;;;;;;;;;;;;;;;4.55;100.00;98771.81;4908828;29;19926;-78
2024/04/03 05:51:29;;;;;;;;;;;;;;;4.46;100.00;98774.75;4906811;29;20010;-79
2024/04/03 05:53:54;;;;;;;;;;;;;;;4.45;100.00;98773.91;4908280;29;19919;-79
2024/04/03 05:56:19;;;;;;;;;;;;;;;5.17;100.00;98780.09;4906082;29;19960;-78
2024/04/03 05:58:45;;;;;;;;;;;;;;;5.59;100.00;98782.91;4908224;29;19923;-78
2024/04/03 06:01:10;;;;;;;;;;;;;;;5.90;100.00;98784.31;4908136;29;19923;-79
2024/04/03 06:03:35;;;;;;;;;;;;;;;6.13;100.00;98795.75;4908431;29;20347;-78
2024/04/03 06:06:00;;;;;;;;;;;;;;;6.28;100.00;98797.72;4908668;29;19946;-77
2024/04/03 06:08:26;;;;;;;;;;;;;;;6.42;100.00;98796.31;4908074;29;20386;-78
2024/04/03 06:10:52;;;;;;;;;;;;;;;6.53;100.00;98794.09;4907805;29;20287;-79
2024/04/03 06:13:17;;;;;;;;;;;;;;;6.62;100.00;98800.72;4907096;29;19974;-79
2024/04/03 06:15:43;;;;;;;;;;;;;;;6.67;100.00;98799.63;4908094;29;19931;-78
2024/04/03 06:18:08;;;;;;;;;;;;;;;6.75;100.00;98801.06;4907968;29;20034;-78
2024/04/03 06:20:34;;;;;;;;;;;;;;;6.84;100.00;98798.88;4907798;29;19915;-79
2024/04/03 06:22:59;;;;;;;;;;;;;;;6.93;100.00;98795.03;4907977;29;19919;-78
2024/04/03 06:25:25;;;;;;;;;;;;;;;7.00;100.00;98796.44;4906706;29;20307;-78
2024/04/03 06:27:51;;;;;;;;;;;;;;;7.09;100.00;98795.19;4906236;29;20291;-78
2024/04/03 06:30:16;;;;;;;;;;;;;;;7.16;100.00;98795.78;4906177;29;19930;-79
2024/04/03 06:32:42;;;;;;;;;;;;;;;7.25;100.00;98798.84;4907963;29;20359;-79
2024/04/03 06:35:08;;;;;;;;;;;;;;;7.31;100.00;98797.72;4906273;29;19966;-78
2024/04/03 06:37:33;;;;;;;;;;;;;;;7.37;100.00;98799.22;4905953;29;19958;-80
2024/04/03 06:39:59;;;;;;;;;;;;;;;7.44;100.00;98796.25;4906222;29;19969;-77
2024/04/03 06:42:24;;;;;;;;;;;;;;;7.51;100.00;98801.22;4906422;29;19947;-79
2024/04/03 06:44:49;;;;;;;;;;;;;;;7.58;100.00;98792.13;4906294;29;19923;-79
2024/04/03 06:47:16;;;;;;;;;;;;;;;7.63;100.00;98790.13;4907678;29;19923;-80
2024/04/03 06:49:41;;;;;;;;;;;;;;;7.69;100.00;98795.13;4907030;29;19919;-87
2024/04/03 06:52:06;;;;;;;;;;;;;;;7.72;100.00;98792.34;4905841;29;20140;-83
2024/04/03 06:54:33;;;;;;;;;;;;;;;7.78;100.00;98788.53;4907418;29;19919;-78
2024/04/03 06:56:58;;;;;;;;;;;;;;;7.82;100.00;98796.25;4906283;29;20355;-79
2024/04/03 06:59:23;;;;;;;;;;;;;;;7.90;100.00;98781.84;4906799;29;19919;-78
2024/04/03 07:01:49;;;;;;;;;;;;;;;6.85;100.00;98786.59;4907074;29;20075;-78
2024/04/03 07:54:54;;;;;;;;;;;;;;;4.56;100.00;98763.00;5522004;23;19935;-84
2024/04/03 07:57:20;;;;;;;;;;;;;;;4.61;100.00;98763.72;4914426;29;19965;-89
2024/04/03 07:59:46;;;;;;;;;;;;;;;4.59;100.00;98767.31;4913877;29;19963;-85
2024/04/03 08:02:11;;;;;;;;;;;;;;;4.56;100.00;98765.63;4915294;29;20010;-88
2024/04/03 08:04:36;;;;;;;;;;;;;;;4.53;100.00;98761.38;4915950;29;20009;-86
2024/04/03 08:07:02;;;;;;;;;;;;;;;9.13;100.00;98769.56;4897661;29;19933;-89
2024/04/03 08:09:31;;;;;;;;;;;;;;;5.74;100.00;98770.91;4912763;29;19930;-91
2024/04/03 08:11:56;;;;;;;;;;;;;;;5.25;100.00;98775.47;4898379;29;19920;-84
2024/04/03 08:14:22;;;;;;;;;;;;;;;5.15;100.00;98769.66;4914287;29;19930;-93
2024/04/03 08:16:47;;;;;;;;;;;;;;;5.11;100.00;98770.69;4900473;29;19942;-89
2024/04/03 08:19:13;;;;;;;;;;;;;;;5.07;100.00;98769.09;4901419;29;20496;-79
2024/04/03 08:21:38;;;;;;;;;;;;;;;7.43;100.00;98762.03;4918588;29;19929;-85
2024/04/03 08:24:03;;;;;;;;;;;;;;;5.74;100.00;98762.19;4916847;29;19926;-84
2024/04/03 08:26:29;;;;;;;;;;;;;;;7.16;100.00;98764.16;4918805;29;19929;-84
2024/04/03 08:28:54;;;;;;;;;;;;;;;10.56;100.00;98761.56;4918132;29;20318;-85
2024/04/03 08:31:20;;;;;;;;;;;;;;;9.41;100.00;98763.63;4918892;29;19967;-82
2024/04/03 08:33:45;;;;;;;;;;;;;;;7.35;100.00;98770.28;4917401;29;19927;-90
2024/04/03 08:36:11;;;;;;;;;;;;;;;6.19;100.00;98771.81;4918499;29;19915;-88
2024/04/03 08:38:37;;;;;;;;;;;;;;;5.74;100.00;98765.66;4917804;29;20643;-81
2024/04/03 08:41:02;;;;;;;;;;;;;;;5.58;100.00;98775.91;4918290;29;19983;-82
2024/04/03 08:43:27;;;;;;;;;;;;;;;5.41;100.00;98763.44;4919139;29;20530;-86
2024/04/03 08:45:56;;;;;;;;;;;;;;;9.69;100.00;98756.84;4919257;29;19923;-87
2024/04/03 08:48:22;;;;;;;;;;;;;;;14.37;100.00;98724.72;4919115;29;20006;-85
2024/04/03 08:50:53;;;;;;;;;;;;;;;14.84;100.00;98712.28;4901651;29;20015;-89
2024/04/03 08:53:20;;;;;;;;;;;;;;;15.45;100.00;98722.59;4919054;29;20454;-90
2024/04/03 08:55:46;;;;;;;;;;;;;;;9.05;100.00;98743.53;4917893;29;19923;-87
2024/04/03 08:58:12;;;;;;;;;;;;;;;7.55;100.00;98758.84;4917445;29;19930;-87
2024/04/03 09:00:37;;;;;;;;;;;;;;;6.95;100.00;98769.47;4917830;29;19966;-89
2024/04/03 09:03:03;;;;;;;;;;;;;;;6.67;100.00;98770.69;4917810;29;20294;-83
2024/04/03 09:05:28;;;;;;;;;;;;;;;6.34;100.00;98768.53;4901562;29;19924;-85
2024/04/03 09:08:11;;;;;;;;;;;;;;;6.18;100.00;98768.31;4917577;29;19965;-86
2024/04/03 09:11:00;;;;;;;;;;;;;;;6.02;100.00;98764.63;4915471;29;19930;-85
2024/04/03 09:13:23;;;;;;;;;;;;;;;5.87;100.00;98768.69;4916923;29;20379;-86
2024/04/03 09:15:54;;;;;;;;;;;;;;;5.76;100.00;98757.72;4918358;29;19966;-84
2024/04/03 09:18:19;;;;;;;;;;;;;;;5.64;100.00;98759.06;4918299;29;19931;-86
2024/04/03 09:20:47;;;;;;;;;;;;;;;5.55;100.00;98762.94;4916742;29;19935;-88
2024/04/03 09:23:13;;;;;;;;;;;;;;;5.57;100.00;98761.09;4918061;29;19923;-87
2024/04/03 09:25:38;;;;;;;;;;;;;;;5.50;100.00;98764.84;4917189;29;19930;-80
2024/04/03 09:28:04;;;;;;;;;;;;;;;5.37;100.00;98761.00;4915903;29;20015;-84
2024/04/03 09:30:30;;;;;;;;;;;;;;;5.34;100.00;98761.94;4917306;29;20302;-88
2024/04/03 09:32:58;;;;;;;;;;;;;;;5.25;100.00;98757.91;4917098;29;19927;-79
2024/04/03 09:35:33;;;;;;;;;;;;;;;5.23;100.00;98767.63;4917684;29;19923;-79
2024/04/03 09:37:59;;;;;;;;;;;;;;;5.08;100.00;98760.31;4917007;29;19932;-80
2024/04/03 09:40:25;;;;;;;;;;;;;;;5.04;100.00;98764.81;4899013;29;19935;-78
2024/04/03 09:42:55;;;;;;;;;;;;;;;5.07;100.00;98766.47;4916926;29;19927;-81
2024/04/03 09:45:20;;;;;;;;;;;;;;;5.01;100.00;98761.44;4918058;29;19966;-79
2024/04/03 09:47:49;;;;;;;;;;;;;;;5.03;100.00;98764.88;4917664;29;19965;-83
2024/04/03 09:50:15;;;;;;;;;;;;;;;5.02;100.00;98756.13;4917183;29;19923;-85
2024/04/03 09:52:41;;;;;;;;;;;;;;;4.97;100.00;98757.22;4917577;29;19934;-82
2024/04/03 09:55:06;;;;;;;;;;;;;;;4.95;100.00;98753.81;4915852;29;19927;-81
2024/04/03 09:57:32;;;;;;;;;;;;;;;4.88;100.00;98753.16;4917621;29;19930;-79
2024/04/03 09:59:57;;;;;;;;;;;;;;;4.87;100.00;98749.69;4917794;29;19923;-78
2024/04/03 10:02:23;;;;;;;;;;;;;;;4.85;100.00;98758.50;4917211;29;19919;-84
2024/04/03 10:04:48;;;;;;;;;;;;;;;4.82;100.00;98756.88;4917321;29;19926;-80
2024/04/03 10:07:17;;;;;;;;;;;;;;;4.79;100.00;98759.59;4917314;29;19927;-83
2024/04/03 10:09:42;;;;;;;;;;;;;;;4.75;100.00;98752.72;4915582;29;19923;-80
2024/04/03 10:12:15;;;;;;;;;;;;;;;4.86;100.00;98755.81;4917394;29;19927;-82
2024/04/03 10:14:40;;;;;;;;;;;;;;;4.77;100.00;98755.31;4917188;29;19923;-80
2024/04/03 10:17:13;;;;;;;;;;;;;;;4.72;100.00;98753.72;4917452;29;20370;-81
2024/04/03 10:19:41;;;;;;;;;;;;;;;4.75;100.00;98747.47;4898624;29;19930;-81
2024/04/03 10:22:06;;;;;;;;;;;;;;;4.71;100.00;98754.63;4916406;29;19930;-79
2024/04/03 10:24:32;;;;;;;;;;;;;;;4.72;100.00;98750.22;4915341;29;19919;-82
2024/04/03 10:26:58;;;;;;;;;;;;;;;4.73;100.00;98749.31;4916389;29;19919;-79
2024/04/03 10:29:23;;;;;;;;;;;;;;;4.71;100.00;98744.13;4917108;29;19923;-79
2024/04/03 10:31:48;;;;;;;;;;;;;;;4.71;100.00;98745.91;4916973;29;19923;-81
2024/04/03 10:34:17;;;;;;;;;;;;;;;4.66;100.00;98750.44;4916352;29;19927;-81
2024/04/03 10:36:43;;;;;;;;;;;;;;;4.67;100.00;98739.03;4915939;29;20367;-76
2024/04/03 10:39:08;;;;;;;;;;;;;;;4.68;100.00;98746.00;4915839;29;19975;-79
2024/04/03 10:41:34;;;;;;;;;;;;;;;4.68;100.00;98746.84;4915712;29;19923;-78
2024/04/03 10:43:59;;;;;;;;;;;;;;;4.63;100.00;98747.94;4916106;29;20014;-84
2024/04/03 10:46:24;;;;;;;;;;;;;;;4.68;100.00;98746.00;4898925;29;19930;-83
2024/04/03 10:48:52;;;;;;;;;;;;;;;4.63;100.00;98750.56;4898970;29;19931;-78
2024/04/03 10:51:18;;;;;;;;;;;;;;;4.56;100.00;98747.28;4916645;29;19923;-80
2024/04/03 10:53:43;;;;;;;;;;;;;;;4.58;100.00;98747.22;4915734;29;19934;-83
2024/04/03 10:56:09;;;;;;;;;;;;;;;4.59;100.00;98741.06;4899578;29;19923;-85
2024/04/03 10:58:37;;;;;;;;;;;;;;;4.54;100.00;98738.59;4899690;29;19919;-81
2024/04/03 11:01:03;;;;;;;;;;;;;;;4.52;100.00;98746.53;4916025;29;20289;-78
2024/04/03 11:03:28;;;;;;;;;;;;;;;4.54;100.00;98743.84;4916773;29;19920;-80
2024/04/03 11:05:53;;;;;;;;;;;;;;;4.52;100.00;98738.66;4915979;29;19934;-87
2024/04/03 11:08:21;;;;;;;;;;;;;;;4.52;100.00;98738.66;4899252;29;19923;-79
2024/04/03 11:10:46;;;;;;;;;;;;;;;4.55;100.00;98735.09;4915179;29;20354;-85
2024/04/03 11:13:14;;;;;;;;;;;;;;;4.50;100.00;98739.59;4916576;29;19920;-86
2024/04/03 11:15:39;;;;;;;;;;;;;;;4.50;100.00;98737.88;4915935;29;19923;-78
2024/04/03 11:18:05;;;;;;;;;;;;;;;4.50;100.00;98740.50;4916409;29;19927;-78
2024/04/03 11:20:31;;;;;;;;;;;;;;;4.50;100.00;98736.97;4915127;29;19927;-82
2024/04/03 11:22:58;;;;;;;;;;;;;;;4.49;100.00;98735.28;4899293;29;20410;-81
2024/04/03 11:25:23;;;;;;;;;;;;;;;4.46;100.00;98733.63;4913744;29;20017;-82
2024/04/03 11:27:49;;;;;;;;;;;;;;;4.41;100.00;98734.72;4916317;29;20002;-84
2024/04/03 11:30:14;;;;;;;;;;;;;;;4.43;100.00;98730.25;4915872;29;19938;-83
2024/04/03 11:32:39;;;;;;;;;;;;;;;4.48;100.00;98739.69;4915963;29;20022;-77
2024/04/03 11:35:08;;;;;;;;;;;;;;;4.47;100.00;98748.47;4914986;29;19931;-81
2024/04/03 11:37:34;;;;;;;;;;;;;;;4.47;100.00;98743.22;4914643;29;20416;-84
2024/04/03 11:40:00;;;;;;;;;;;;;;;4.49;100.00;98754.50;4913372;29;19923;-85
2024/04/03 11:42:25;;;;;;;;;;;;;;;4.50;100.00;98756.22;4898518;29;19923;-87
2024/04/03 11:44:50;;;;;;;;;;;;;;;4.43;100.00;98751.25;4915884;29;19946;-82
2024/04/03 11:47:16;;;;;;;;;;;;;;;4.47;100.00;98756.34;4916038;29;19923;-79
2024/04/03 11:49:42;;;;;;;;;;;;;;;4.50;100.00;98755.34;4915444;29;20390;-85
2024/04/03 11:52:08;;;;;;;;;;;;;;;4.50;100.00;98753.59;4915750;29;20370;-80
2024/04/03 11:54:33;;;;;;;;;;;;;;;4.49;100.00;98746.63;4914652;29;19919;-84
2024/04/03 11:56:59;;;;;;;;;;;;;;;4.49;100.00;98746.63;4914791;29;19957;-85
2024/04/03 11:59:25;;;;;;;;;;;;;;;4.50;100.00;98748.34;4897458;29;20375;-84
2024/04/03 12:01:50;;;;;;;;;;;;;;;4.48;100.00;98744.94;4915653;29;19923;-79
2024/04/03 12:04:15;;;;;;;;;;;;;;;4.47;100.00;98743.22;4915917;29;20381;-78
2024/04/03 12:06:40;;;;;;;;;;;;;;;4.43;100.00;98744.22;4915717;29;20355;-82
2024/04/03 12:09:06;;;;;;;;;;;;;;;4.48;100.00;98750.19;4914528;29;19945;-80
2024/04/03 12:11:31;;;;;;;;;;;;;;;4.46;100.00;98744.13;4898736;29;19930;-84
2024/04/03 12:13:57;;;;;;;;;;;;;;;4.45;100.00;98750.28;4898188;29;20425;-88
2024/04/03 12:16:24;;;;;;;;;;;;;;;4.45;100.00;98750.28;4915772;29;20007;-83
2024/04/03 12:18:50;;;;;;;;;;;;;;;4.45;100.00;98749.41;4898913;29;19922;-81
2024/04/03 12:21:18;;;;;;;;;;;;;;;4.47;100.00;98743.22;4915694;29;20377;-84
2024/04/03 12:23:47;;;;;;;;;;;;;;;4.43;100.00;98741.59;4914436;29;19919;-82
2024/04/03 12:26:13;;;;;;;;;;;;;;;4.46;100.00;98751.97;4913862;29;19923;-84
2024/04/03 12:28:38;;;;;;;;;;;;;;;4.48;100.00;98749.31;4915932;29;19930;-80
2024/04/03 12:31:04;;;;;;;;;;;;;;;4.42;100.00;98750.41;4915604;29;19926;-88
2024/04/03 12:33:29;;;;;;;;;;;;;;;4.50;100.00;98750.09;4915633;29;19923;-84
2024/04/03 12:35:54;;;;;;;;;;;;;;;4.47;100.00;98752.88;4915466;29;19929;-85
2024/04/03 12:38:20;;;;;;;;;;;;;;;4.53;100.00;98758.75;4915607;29;19961;-83
2024/04/03 12:40:45;;;;;;;;;;;;;;;4.46;100.00;98753.75;4914937;29;19923;-92
2024/04/03 12:43:10;;;;;;;;;;;;;;;4.50;100.00;98756.22;4915675;29;19927;-83
2024/04/03 12:45:36;;;;;;;;;;;;;;;4.46;100.00;98759.84;4897736;29;20275;-81
2024/04/03 12:48:03;;;;;;;;;;;;;;;4.50;100.00;98758.84;4915020;29;19950;-80
2024/04/03 12:50:29;;;;;;;;;;;;;;;4.48;100.00;98770.28;4914628;29;19926;-83
2024/04/03 12:52:54;;;;;;;;;;;;;;;4.43;100.00;98757.34;4914473;29;20375;-83
2024/04/03 12:55:19;;;;;;;;;;;;;;;4.43;100.00;98759.09;4913439;29;19923;-83
2024/04/03 12:57:44;;;;;;;;;;;;;;;4.47;100.00;98761.56;4914176;29;20053;-80
2024/04/03 13:00:10;;;;;;;;;;;;;;;4.49;100.00;98756.28;4914499;29;20386;-81
2024/04/03 13:02:35;;;;;;;;;;;;;;;4.48;100.00;98765.03;4914909;29;19927;-82
2024/04/03 13:05:01;;;;;;;;;;;;;;;4.51;100.00;98759.69;4917834;29;19927;-81
2024/04/03 13:07:26;;;;;;;;;;;;;;;4.48;100.00;98770.28;4918041;29;20062;-84
2024/04/03 13:09:53;;;;;;;;;;;;;;;4.50;100.00;98764.09;4899086;29;19958;-84
2024/04/03 13:12:18;;;;;;;;;;;;;;;4.49;100.00;98767.63;4900751;29;20306;-87
2024/04/03 13:14:43;;;;;;;;;;;;;;;4.49;100.00;98767.63;4918642;29;19923;-88
2024/04/03 13:17:09;;;;;;;;;;;;;;;4.45;100.00;98767.78;4918873;29;20272;-80
2024/04/03 13:19:35;;;;;;;;;;;;;;;4.49;100.00;98772.88;4918378;29;20487;-88
2024/04/03 13:22:00;;;;;;;;;;;;;;;4.53;100.00;98771.88;4900818;29;19923;-83
2024/04/03 13:24:25;;;;;;;;;;;;;;;4.54;100.00;98770.94;4916195;29;19990;-82
2024/04/03 13:26:50;;;;;;;;;;;;;;;4.47;100.00;98779.94;4919032;29;19919;-81
2024/04/03 13:29:16;;;;;;;;;;;;;;;4.43;100.00;98782.72;4918585;29;19915;-84
2024/04/03 13:31:41;;;;;;;;;;;;;;;4.48;100.00;98789.53;4919136;29;20426;-91
2024/04/03 13:34:08;;;;;;;;;;;;;;;4.50;100.00;98785.09;4918646;29;19927;-80
2024/04/03 13:36:33;;;;;;;;;;;;;;;4.51;100.00;98784.16;4916656;29;19938;-82
2024/04/03 13:38:58;;;;;;;;;;;;;;;4.55;100.00;98787.56;4916912;29;20049;-81
2024/04/03 13:41:23;;;;;;;;;;;;;;;4.54;100.00;98788.47;4917241;29;19927;-81
2024/04/03 13:43:49;;;;;;;;;;;;;;;4.53;100.00;98790.22;4917260;29;19923;-85
2024/04/03 13:46:14;;;;;;;;;;;;;;;4.53;100.00;98787.59;4918286;29;19927;-91
2024/04/03 13:48:40;;;;;;;;;;;;;;;4.48;100.00;98789.53;4900340;29;20517;-84
2024/04/03 13:51:08;;;;;;;;;;;;;;;4.52;100.00;98783.25;4916223;29;19938;-80
2024/04/03 13:53:33;;;;;;;;;;;;;;;4.52;100.00;98783.25;4916645;29;19923;-82
2024/04/03 13:55:59;;;;;;;;;;;;;;;4.54;100.00;98783.22;4900581;29;19923;-82
2024/04/03 13:58:27;;;;;;;;;;;;;;;4.51;100.00;98786.78;4900320;29;20226;-87
2024/04/03 14:00:55;;;;;;;;;;;;;;;4.54;100.00;98786.69;4897769;29;19927;-85
2024/04/03 14:03:20;;;;;;;;;;;;;;;4.47;100.00;98779.09;4899404;29;20002;-82
2024/04/03 14:05:46;;;;;;;;;;;;;;;4.49;100.00;98780.75;4917634;29;20357;-84
2024/04/03 14:08:12;;;;;;;;;;;;;;;4.45;100.00;98781.78;4917584;29;19929;-83
2024/04/03 14:10:38;;;;;;;;;;;;;;;4.52;100.00;98785.88;4915800;29;19927;-81
2024/04/03 14:13:03;;;;;;;;;;;;;;;4.44;100.00;98781.81;4917079;29;19919;-81
2024/04/03 14:15:29;;;;;;;;;;;;;;;4.51;100.00;98786.78;4916603;29;20267;-85
2024/04/03 14:17:54;;;;;;;;;;;;;;;4.51;100.00;98792.03;4915673;29;19972;-84
2024/04/03 14:20:19;;;;;;;;;;;;;;;4.52;100.00;98788.50;4917207;29;19929;-88
2024/04/03 14:22:45;;;;;;;;;;;;;;;4.52;100.00;98791.13;4917387;29;20389;-82
2024/04/03 14:25:11;;;;;;;;;;;;;;;4.49;100.00;98791.22;4915404;29;20293;-84
2024/04/03 14:27:38;;;;;;;;;;;;;;;4.47;100.00;98785.19;4917216;29;19923;-81
2024/04/03 14:30:05;;;;;;;;;;;;;;;4.49;100.00;98782.50;4884290;29;19923;-79
2024/04/03 14:32:31;;;;;;;;;;;;;;;4.48;100.00;98792.16;4916743;29;19923;-81
2024/04/03 14:34:56;;;;;;;;;;;;;;;4.49;100.00;98796.47;4916174;29;20017;-78
2024/04/03 14:37:21;;;;;;;;;;;;;;;4.49;100.00;98785.97;4899875;29;19967;-81
2024/04/03 14:39:46;;;;;;;;;;;;;;;4.50;100.00;98790.34;4915910;29;19926;-79
2024/04/03 14:42:12;;;;;;;;;;;;;;;4.55;100.00;98791.03;4899760;29;19927;-77
2024/04/03 14:44:37;;;;;;;;;;;;;;;4.55;100.00;98785.78;4916613;29;19927;-79
2024/04/03 14:47:02;;;;;;;;;;;;;;;4.53;100.00;98787.59;4915814;29;20294;-84
2024/04/03 14:49:28;;;;;;;;;;;;;;;4.57;100.00;98790.13;4917080;29;19926;-85
2024/04/03 14:51:53;;;;;;;;;;;;;;;4.54;100.00;98791.06;4915098;29;19978;-82
2024/04/03 14:54:18;;;;;;;;;;;;;;;4.52;100.00;98790.28;4915905;29;19926;-82
2024/04/03 14:56:44;;;;;;;;;;;;;;;4.49;100.00;98790.38;4916559;29;19945;-84
2024/04/03 14:59:09;;;;;;;;;;;;;;;4.49;100.00;98788.59;4916599;29;19989;-77
2024/04/03 15:01:34;;;;;;;;;;;;;;;4.48;100.00;98784.28;4915892;29;19927;-82
2024/04/03 15:03:59;;;;;;;;;;;;;;;4.59;100.00;98790.91;4899718;29;19923;-87
2024/04/03 15:06:24;;;;;;;;;;;;;;;4.47;100.00;98795.69;4898306;29;19927;-80
2024/04/03 15:08:51;;;;;;;;;;;;;;;4.49;100.00;98791.22;4915302;29;19927;-81
2024/04/03 15:11:17;;;;;;;;;;;;;;;4.50;100.00;98786.84;4916037;29;19973;-83
2024/04/03 15:13:42;;;;;;;;;;;;;;;4.47;100.00;98785.19;4915821;29;19962;-79
2024/04/03 15:16:08;;;;;;;;;;;;;;;4.46;100.00;98788.72;4915298;29;19970;-83
2024/04/03 15:18:33;;;;;;;;;;;;;;;4.57;100.00;98784.88;4915091;29;19923;-83
2024/04/03 15:20:58;;;;;;;;;;;;;;;4.52;100.00;98785.88;4916386;29;19919;-81
2024/04/03 15:23:24;;;;;;;;;;;;;;;4.49;100.00;98788.59;4915282;29;19962;-79
2024/04/03 15:25:53;;;;;;;;;;;;;;;4.59;100.00;98783.06;4914558;29;19971;-79
2024/04/03 15:28:19;;;;;;;;;;;;;;;4.55;100.00;98784.94;4916470;29;19973;-84
2024/04/03 15:30:44;;;;;;;;;;;;;;;5.46;100.00;98792.19;4898708;29;20010;-84
2024/04/03 15:33:09;;;;;;;;;;;;;;;4.86;100.00;98789.09;4916119;29;19971;-81
2024/04/03 15:35:35;;;;;;;;;;;;;;;4.71;100.00;98787.88;4915607;29;20759;-76
2024/04/03 15:38:00;;;;;;;;;;;;;;;4.69;100.00;98787.06;4916201;29;19926;-80
2024/04/03 15:40:25;;;;;;;;;;;;;;;4.60;100.00;98790.88;4914933;29;19923;-80
2024/04/03 15:42:53;;;;;;;;;;;;;;;4.59;100.00;98798.78;4916069;29;19923;-81
2024/04/03 15:45:19;;;;;;;;;;;;;;;4.54;100.00;98789.31;4915935;29;19926;-76
2024/04/03 15:47:44;;;;;;;;;;;;;;;4.59;100.00;98794.41;4916030;29;19923;-80
2024/04/03 15:50:10;;;;;;;;;;;;;;;4.52;100.00;98791.13;4915978;29;19925;-76
2024/04/03 15:52:35;;;;;;;;;;;;;;;4.57;100.00;98790.13;4915900;29;19926;-77
2024/04/03 15:55:01;;;;;;;;;;;;;;;4.51;100.00;98789.41;4914737;29;20049;-78
2024/04/03 15:57:26;;;;;;;;;;;;;;;4.53;100.00;98789.34;4915914;29;19919;-77
2024/04/03 15:59:52;;;;;;;;;;;;;;;4.51;100.00;98796.44;4915923;29;20290;-83
2024/04/03 16:02:17;;;;;;;;;;;;;;;4.51;100.00;98786.78;4898807;29;19923;-81
2024/04/03 16:04:42;;;;;;;;;;;;;;;4.51;100.00;98799.06;4915769;29;20378;-78
2024/04/03 16:07:08;;;;;;;;;;;;;;;4.53;100.00;98797.22;4915856;29;19947;-79
2024/04/03 16:09:33;;;;;;;;;;;;;;;4.52;100.00;98801.63;4914496;29;19998;-79
2024/04/03 16:11:59;;;;;;;;;;;;;;;4.48;100.00;98810.53;4915745;29;19923;-81
2024/04/03 16:14:24;;;;;;;;;;;;;;;4.53;100.00;98805.97;4915016;29;20387;-77
2024/04/03 16:16:49;;;;;;;;;;;;;;;4.61;100.00;98807.47;4898617;29;20336;-82
2024/04/03 16:19:15;;;;;;;;;;;;;;;4.64;100.00;98803.00;4915663;29;20811;-80
2024/04/03 16:21:41;;;;;;;;;;;;;;;4.57;100.00;98817.22;4915596;29;19954;-80
2024/04/03 16:24:06;;;;;;;;;;;;;;;4.67;100.00;98823.00;4897451;29;19986;-83
2024/04/03 16:26:32;;;;;;;;;;;;;;;4.57;100.00;98827.72;4915623;29;19919;-82
2024/04/03 16:28:57;;;;;;;;;;;;;;;4.54;100.00;98823.41;4916834;29;19926;-88
2024/04/03 16:31:22;;;;;;;;;;;;;;;4.57;100.00;98829.47;4916958;29;19919;-81
2024/04/03 16:33:48;;;;;;;;;;;;;;;4.51;100.00;98834.00;4915432;29;20017;-77
2024/04/03 16:36:14;;;;;;;;;;;;;;;4.51;100.00;98835.78;4916225;29;19990;-77
2024/04/03 16:38:40;;;;;;;;;;;;;;;4.51;100.00;98831.38;4917989;29;19986;-77
2024/04/03 16:41:05;;;;;;;;;;;;;;;4.49;100.00;98835.84;4919222;29;20458;-76
2024/04/03 16:43:30;;;;;;;;;;;;;;;4.49;100.00;98833.22;4919138;29;19927;-77
2024/04/03 16:45:55;;;;;;;;;;;;;;;4.49;100.00;98825.34;4918948;29;19923;-78
2024/04/03 16:48:21;;;;;;;;;;;;;;;4.48;100.00;98823.66;4919128;29;19923;-78
2024/04/03 16:50:46;;;;;;;;;;;;;;;4.43;100.00;98833.41;4918788;29;19919;-77
2024/04/03 16:53:11;;;;;;;;;;;;;;;4.49;100.00;98835.84;4919060;29;19923;-79
2024/04/03 16:55:36;;;;;;;;;;;;;;;4.47;100.00;98845.53;4917576;29;19948;-76
2024/04/03 16:58:02;;;;;;;;;;;;;;;4.52;100.00;98846.22;4918873;29;19969;-76
2024/04/03 17:00:27;;;;;;;;;;;;;;;4.49;100.00;98850.72;4901872;29;19919;-80
2024/04/03 17:02:53;;;;;;;;;;;;;;;4.49;100.00;98841.06;4918825;29;20401;-77
2024/04/03 17:05:18;;;;;;;;;;;;;;;4.46;100.00;98837.72;4918697;29;19927;-77
2024/04/03 17:07:44;;;;;;;;;;;;;;;4.48;100.00;98828.88;4901852;29;19923;-78
2024/04/03 17:10:11;;;;;;;;;;;;;;;4.45;100.00;98839.47;4917663;29;19922;-76
2024/04/03 17:12:36;;;;;;;;;;;;;;;4.46;100.00;98841.19;4918401;29;19979;-77
2024/04/03 17:15:02;;;;;;;;;;;;;;;4.46;100.00;98835.09;4918598;29;19927;-79
2024/04/03 17:17:27;;;;;;;;;;;;;;;4.47;100.00;98840.28;4918561;29;19919;-78
2024/04/03 17:19:53;;;;;;;;;;;;;;;4.54;100.00;98839.16;4918408;29;19929;-79
2024/04/03 17:22:24;;;;;;;;;;;;;;;4.51;100.00;98834.00;4918534;29;20014;-84
2024/04/03 17:24:49;;;;;;;;;;;;;;;4.51;100.00;98827.91;4899642;29;19927;-77
2024/04/03 17:27:14;;;;;;;;;;;;;;;4.48;100.00;98834.13;4918639;29;19923;-80
2024/04/03 17:29:41;;;;;;;;;;;;;;;4.50;100.00;98841.91;4918643;29;19922;-79
2024/04/03 17:32:06;;;;;;;;;;;;;;;4.50;100.00;98850.69;4918252;29;19950;-78
2024/04/03 17:34:32;;;;;;;;;;;;;;;4.49;100.00;98848.94;4918246;29;19927;-77
2024/04/03 17:36:57;;;;;;;;;;;;;;;4.50;100.00;98855.91;4918139;29;20350;-78
2024/04/03 17:39:22;;;;;;;;;;;;;;;4.42;100.00;98855.31;4917219;29;19923;-78
2024/04/03 17:41:47;;;;;;;;;;;;;;;4.43;100.00;98864.03;4918152;29;19929;-79
2024/04/03 17:44:13;;;;;;;;;;;;;;;4.46;100.00;98862.16;4918124;29;19930;-79
2024/04/03 17:46:38;;;;;;;;;;;;;;;4.46;100.00;98864.78;4918102;29;19919;-77
2024/04/03 17:49:03;;;;;;;;;;;;;;;4.44;100.00;98857.88;4917169;29;19920;-82
2024/04/03 17:51:29;;;;;;;;;;;;;;;4.42;100.00;98860.56;4917966;29;19919;-80
2024/04/03 17:53:54;;;;;;;;;;;;;;;4.45;100.00;98864.84;4916673;29;19930;-82
2024/04/03 17:56:20;;;;;;;;;;;;;;;4.39;100.00;98876.41;4900801;29;19930;-81
2024/04/03 17:58:45;;;;;;;;;;;;;;;4.40;100.00;98872.84;4900830;29;20009;-80
2024/04/03 18:01:10;;;;;;;;;;;;;;;4.38;100.00;98874.66;4917896;29;19915;-81
2024/04/03 18:03:35;;;;;;;;;;;;;;;4.45;100.00;98862.22;4917659;29;20347;-77
2024/04/03 18:06:01;;;;;;;;;;;;;;;4.43;100.00;98867.50;4917645;29;20343;-80
2024/04/03 18:08:28;;;;;;;;;;;;;;;4.42;100.00;98863.19;4917174;29;20554;-78
2024/04/03 18:10:53;;;;;;;;;;;;;;;4.37;100.00;98859.84;4915375;29;19923;-82
2024/04/03 18:13:18;;;;;;;;;;;;;;;4.42;100.00;98864.94;4916640;29;20045;-80
2024/04/03 18:15:44;;;;;;;;;;;;;;;4.42;100.00;98860.56;4916617;29;19955;-83
2024/04/03 18:18:09;;;;;;;;;;;;;;;4.39;100.00;98871.16;4916479;29;20002;-81
2024/04/03 18:20:34;;;;;;;;;;;;;;;4.36;100.00;98887.84;4916687;29;20473;-84
2024/04/03 18:23:01;;;;;;;;;;;;;;;4.39;100.00;98886.88;4899314;29;19951;-81
2024/04/03 18:25:26;;;;;;;;;;;;;;;4.35;100.00;98895.75;4898428;29;19926;-79
2024/04/03 18:27:51;;;;;;;;;;;;;;;4.40;100.00;98888.59;4916517;29;19919;-83
2024/04/03 18:30:17;;;;;;;;;;;;;;;4.38;100.00;98890.41;4916503;29;19919;-77
2024/04/03 18:32:43;;;;;;;;;;;;;;;4.45;100.00;98905.06;4916131;29;20447;-79
2024/04/03 18:35:08;;;;;;;;;;;;;;;4.42;100.00;98907.78;4916221;29;19958;-79
2024/04/03 18:37:35;;;;;;;;;;;;;;;4.43;100.00;98914.72;4916240;29;19919;-79
2024/04/03 18:40:00;;;;;;;;;;;;;;;4.42;100.00;98907.78;4914611;29;20014;-78
2024/04/03 18:42:25;;;;;;;;;;;;;;;4.42;100.00;98915.66;4916289;29;20010;-76